sensor_id;sensor_type;location;lat;lon;timestamp;P1;durP1;ratioP1;P2;durP2;ratioP2
20910;SDS011;10615;42.702;23.314;2023-05-07T00:00:33;12.73;;;9.07;;
20910;SDS011;10615;42.702;23.314;2023-05-07T00:01:34;14.60;;;9.10;;
20910;SDS011;10615;42.702;23.314;2023-05-07T00:02:35;11.82;;;8.90;;
20910;SDS011;10615;42.702;23.314;2023-05-07T00:03:37;14.00;;;8.60;;
20910;SDS011;10615;42.702;23.314;2023-05-07T00:04:37;11.75;;;9.18;;
20910;SDS011;10615;42.702;23.314;2023-05-07T00:05:38;13.48;;;9.38;;
20910;SDS011;10615;42.702;23.314;2023-05-07T00:06:39;12.13;;;9.48;;
20910;SDS011;10615;42.702;23.314;2023-05-07T00:07:40;15.52;;;9.68;;
20910;SDS011;10615;42.702;23.314;2023-05-07T00:08:41;13.20;;;9.27;;
20910;SDS011;10615;42.702;23.314;2023-05-07T00:09:41;11.65;;;9.65;;
20910;SDS011;10615;42.702;23.314;2023-05-07T00:10:42;13.20;;;9.60;;
20910;SDS011;10615;42.702;23.314;2023-05-07T00:11:43;15.50;;;9.43;;
20910;SDS011;10615;42.702;23.314;2023-05-07T00:12:43;10.93;;;9.07;;
20910;SDS011;10615;42.702;23.314;2023-05-07T00:13:44;12.15;;;9.35;;
20910;SDS011;10615;42.702;23.314;2023-05-07T00:14:45;11.40;;;9.07;;
20910;SDS011;10615;42.702;23.314;2023-05-07T00:15:46;16.45;;;10.43;;
20910;SDS011;10615;42.702;23.314;2023-05-07T00:16:46;14.20;;;9.60;;
20910;SDS011;10615;42.702;23.314;2023-05-07T00:17:47;13.38;;;9.77;;
20910;SDS011;10615;42.702;23.314;2023-05-07T00:18:48;14.65;;;9.27;;
20910;SDS011;10615;42.702;23.314;2023-05-07T00:19:48;11.82;;;9.65;;
20910;SDS011;10615;42.702;23.314;2023-05-07T00:20:49;17.90;;;10.68;;
20910;SDS011;10615;42.702;23.314;2023-05-07T00:21:50;12.75;;;9.80;;
20910;SDS011;10615;42.702;23.314;2023-05-07T00:22:50;13.35;;;9.82;;
20910;SDS011;10615;42.702;23.314;2023-05-07T00:23:51;12.27;;;9.25;;
20910;SDS011;10615;42.702;23.314;2023-05-07T00:24:53;13.20;;;9.43;;
20910;SDS011;10615;42.702;23.314;2023-05-07T00:25:53;12.23;;;9.60;;
20910;SDS011;10615;42.702;23.314;2023-05-07T00:26:54;11.65;;;9.18;;
20910;SDS011;10615;42.702;23.314;2023-05-07T00:27:55;14.45;;;8.98;;
20910;SDS011;10615;42.702;23.314;2023-05-07T00:28:57;10.65;;;8.73;;
20910;SDS011;10615;42.702;23.314;2023-05-07T00:29:58;13.48;;;9.13;;
20910;SDS011;10615;42.702;23.314;2023-05-07T00:30:58;14.32;;;9.73;;
20910;SDS011;10615;42.702;23.314;2023-05-07T00:31:59;13.65;;;8.75;;
20910;SDS011;10615;42.702;23.314;2023-05-07T00:33:00;13.70;;;9.27;;
20910;SDS011;10615;42.702;23.314;2023-05-07T00:34:00;11.80;;;8.73;;
20910;SDS011;10615;42.702;23.314;2023-05-07T00:35:01;13.02;;;9.27;;
20910;SDS011;10615;42.702;23.314;2023-05-07T00:36:02;10.80;;;8.93;;
20910;SDS011;10615;42.702;23.314;2023-05-07T00:37:03;11.68;;;9.10;;
20910;SDS011;10615;42.702;23.314;2023-05-07T00:38:04;10.48;;;9.38;;
20910;SDS011;10615;42.702;23.314;2023-05-07T00:39:04;11.73;;;8.80;;
20910;SDS011;10615;42.702;23.314;2023-05-07T00:40:05;10.65;;;8.95;;
20910;SDS011;10615;42.702;23.314;2023-05-07T00:41:07;15.27;;;9.02;;
20910;SDS011;10615;42.702;23.314;2023-05-07T00:42:08;13.88;;;9.25;;
20910;SDS011;10615;42.702;23.314;2023-05-07T00:43:08;11.00;;;9.05;;
20910;SDS011;10615;42.702;23.314;2023-05-07T00:44:09;11.65;;;9.27;;
20910;SDS011;10615;42.702;23.314;2023-05-07T00:45:10;13.52;;;9.60;;
20910;SDS011;10615;42.702;23.314;2023-05-07T00:46:10;11.50;;;9.15;;
20910;SDS011;10615;42.702;23.314;2023-05-07T00:47:12;13.68;;;9.73;;
20910;SDS011;10615;42.702;23.314;2023-05-07T00:48:13;13.07;;;9.65;;
20910;SDS011;10615;42.702;23.314;2023-05-07T00:49:15;12.50;;;9.38;;
20910;SDS011;10615;42.702;23.314;2023-05-07T00:50:16;11.18;;;8.82;;
20910;SDS011;10615;42.702;23.314;2023-05-07T00:51:17;11.93;;;9.48;;
20910;SDS011;10615;42.702;23.314;2023-05-07T00:52:18;12.00;;;9.82;;
20910;SDS011;10615;42.702;23.314;2023-05-07T00:53:21;11.57;;;9.50;;
20910;SDS011;10615;42.702;23.314;2023-05-07T00:54:22;14.10;;;9.68;;
20910;SDS011;10615;42.702;23.314;2023-05-07T00:55:23;12.82;;;9.48;;
20910;SDS011;10615;42.702;23.314;2023-05-07T00:56:24;12.52;;;9.40;;
20910;SDS011;10615;42.702;23.314;2023-05-07T00:57:25;12.52;;;9.45;;
20910;SDS011;10615;42.702;23.314;2023-05-07T00:58:26;15.35;;;9.73;;
20910;SDS011;10615;42.702;23.314;2023-05-07T00:59:27;13.18;;;9.75;;
20910;SDS011;10615;42.702;23.314;2023-05-07T01:00:27;11.70;;;9.45;;
20910;SDS011;10615;42.702;23.314;2023-05-07T01:01:28;13.18;;;9.98;;
20910;SDS011;10615;42.702;23.314;2023-05-07T01:02:29;12.68;;;9.75;;
20910;SDS011;10615;42.702;23.314;2023-05-07T01:03:30;13.63;;;9.57;;
20910;SDS011;10615;42.702;23.314;2023-05-07T01:04:31;10.95;;;9.55;;
20910;SDS011;10615;42.702;23.314;2023-05-07T01:05:31;13.25;;;9.98;;
20910;SDS011;10615;42.702;23.314;2023-05-07T01:06:32;12.20;;;9.55;;
20910;SDS011;10615;42.702;23.314;2023-05-07T01:07:33;14.07;;;9.57;;
20910;SDS011;10615;42.702;23.314;2023-05-07T01:08:35;11.35;;;9.20;;
20910;SDS011;10615;42.702;23.314;2023-05-07T01:09:39;13.38;;;10.20;;
20910;SDS011;10615;42.702;23.314;2023-05-07T01:10:40;15.65;;;11.05;;
20910;SDS011;10615;42.702;23.314;2023-05-07T01:11:43;12.38;;;10.02;;
20910;SDS011;10615;42.702;23.314;2023-05-07T01:12:44;12.85;;;10.43;;
20910;SDS011;10615;42.702;23.314;2023-05-07T01:13:47;13.38;;;11.02;;
20910;SDS011;10615;42.702;23.314;2023-05-07T01:14:48;14.85;;;11.15;;
20910;SDS011;10615;42.702;23.314;2023-05-07T01:15:50;12.20;;;10.02;;
20910;SDS011;10615;42.702;23.314;2023-05-07T01:16:51;14.05;;;10.07;;
20910;SDS011;10615;42.702;23.314;2023-05-07T01:17:53;15.18;;;10.73;;
20910;SDS011;10615;42.702;23.314;2023-05-07T01:18:53;16.17;;;10.32;;
20910;SDS011;10615;42.702;23.314;2023-05-07T01:19:54;18.35;;;10.65;;
20910;SDS011;10615;42.702;23.314;2023-05-07T01:20:55;16.13;;;9.93;;
20910;SDS011;10615;42.702;23.314;2023-05-07T01:22:02;12.82;;;10.20;;
20910;SDS011;10615;42.702;23.314;2023-05-07T01:23:07;15.95;;;10.75;;
20910;SDS011;10615;42.702;23.314;2023-05-07T01:24:08;15.40;;;10.52;;
20910;SDS011;10615;42.702;23.314;2023-05-07T01:25:10;12.93;;;10.55;;
20910;SDS011;10615;42.702;23.314;2023-05-07T01:26:10;15.77;;;10.95;;
20910;SDS011;10615;42.702;23.314;2023-05-07T01:27:11;16.02;;;10.30;;
20910;SDS011;10615;42.702;23.314;2023-05-07T01:28:12;13.82;;;10.13;;
20910;SDS011;10615;42.702;23.314;2023-05-07T01:29:12;14.70;;;10.48;;
20910;SDS011;10615;42.702;23.314;2023-05-07T01:30:13;14.48;;;10.55;;
20910;SDS011;10615;42.702;23.314;2023-05-07T01:31:14;13.77;;;10.55;;
20910;SDS011;10615;42.702;23.314;2023-05-07T01:32:16;14.25;;;10.18;;
20910;SDS011;10615;42.702;23.314;2023-05-07T01:33:21;16.23;;;10.82;;
20910;SDS011;10615;42.702;23.314;2023-05-07T01:34:22;13.63;;;10.20;;
20910;SDS011;10615;42.702;23.314;2023-05-07T01:35:36;11.70;;;10.18;;
20910;SDS011;10615;42.702;23.314;2023-05-07T01:36:39;14.77;;;8.68;;
20910;SDS011;10615;42.702;23.314;2023-05-07T01:37:42;11.68;;;8.65;;
20910;SDS011;10615;42.702;23.314;2023-05-07T01:38:43;16.48;;;9.27;;
20910;SDS011;10615;42.702;23.314;2023-05-07T01:39:44;12.23;;;8.38;;
20910;SDS011;10615;42.702;23.314;2023-05-07T01:40:47;10.35;;;7.85;;
20910;SDS011;10615;42.702;23.314;2023-05-07T01:41:48;10.52;;;8.25;;
20910;SDS011;10615;42.702;23.314;2023-05-07T01:42:49;10.73;;;8.32;;
20910;SDS011;10615;42.702;23.314;2023-05-07T01:43:50;10.27;;;8.13;;
20910;SDS011;10615;42.702;23.314;2023-05-07T01:44:53;12.35;;;8.30;;
20910;SDS011;10615;42.702;23.314;2023-05-07T01:45:54;12.38;;;8.52;;
20910;SDS011;10615;42.702;23.314;2023-05-07T01:46:56;11.05;;;8.18;;
20910;SDS011;10615;42.702;23.314;2023-05-07T01:47:58;14.57;;;8.50;;
20910;SDS011;10615;42.702;23.314;2023-05-07T01:48:59;10.85;;;7.95;;
20910;SDS011;10615;42.702;23.314;2023-05-07T01:50:00;9.57;;;7.53;;
20910;SDS011;10615;42.702;23.314;2023-05-07T01:51:01;11.60;;;7.30;;
20910;SDS011;10615;42.702;23.314;2023-05-07T01:52:02;11.73;;;7.32;;
20910;SDS011;10615;42.702;23.314;2023-05-07T01:53:03;13.02;;;8.07;;
20910;SDS011;10615;42.702;23.314;2023-05-07T01:54:04;11.15;;;7.32;;
20910;SDS011;10615;42.702;23.314;2023-05-07T01:55:05;12.60;;;7.78;;
20910;SDS011;10615;42.702;23.314;2023-05-07T01:56:06;12.55;;;8.02;;
20910;SDS011;10615;42.702;23.314;2023-05-07T01:57:07;10.18;;;7.57;;
20910;SDS011;10615;42.702;23.314;2023-05-07T01:58:08;9.70;;;7.55;;
20910;SDS011;10615;42.702;23.314;2023-05-07T01:59:09;10.23;;;7.75;;
20910;SDS011;10615;42.702;23.314;2023-05-07T02:00:09;11.35;;;7.63;;
20910;SDS011;10615;42.702;23.314;2023-05-07T02:01:10;10.77;;;7.20;;
20910;SDS011;10615;42.702;23.314;2023-05-07T02:02:11;15.27;;;7.70;;
20910;SDS011;10615;42.702;23.314;2023-05-07T02:03:12;9.60;;;6.97;;
20910;SDS011;10615;42.702;23.314;2023-05-07T02:04:12;12.85;;;6.90;;
20910;SDS011;10615;42.702;23.314;2023-05-07T02:05:13;13.05;;;7.03;;
20910;SDS011;10615;42.702;23.314;2023-05-07T02:06:14;11.80;;;7.90;;
20910;SDS011;10615;42.702;23.314;2023-05-07T02:07:14;12.82;;;6.97;;
20910;SDS011;10615;42.702;23.314;2023-05-07T02:08:15;13.63;;;7.38;;
20910;SDS011;10615;42.702;23.314;2023-05-07T02:09:16;11.82;;;7.20;;
20910;SDS011;10615;42.702;23.314;2023-05-07T02:10:16;13.30;;;6.78;;
20910;SDS011;10615;42.702;23.314;2023-05-07T02:11:17;11.80;;;6.75;;
20910;SDS011;10615;42.702;23.314;2023-05-07T02:12:18;9.25;;;6.30;;
20910;SDS011;10615;42.702;23.314;2023-05-07T02:13:19;11.90;;;6.78;;
20910;SDS011;10615;42.702;23.314;2023-05-07T02:14:20;10.05;;;6.50;;
20910;SDS011;10615;42.702;23.314;2023-05-07T02:15:20;9.80;;;7.00;;
20910;SDS011;10615;42.702;23.314;2023-05-07T02:16:21;8.60;;;7.03;;
20910;SDS011;10615;42.702;23.314;2023-05-07T02:17:23;10.43;;;6.40;;
20910;SDS011;10615;42.702;23.314;2023-05-07T02:18:23;8.25;;;6.65;;
20910;SDS011;10615;42.702;23.314;2023-05-07T02:19:24;9.27;;;7.10;;
20910;SDS011;10615;42.702;23.314;2023-05-07T02:20:25;10.50;;;7.28;;
20910;SDS011;10615;42.702;23.314;2023-05-07T02:21:25;9.75;;;6.90;;
20910;SDS011;10615;42.702;23.314;2023-05-07T02:22:26;9.10;;;6.90;;
20910;SDS011;10615;42.702;23.314;2023-05-07T02:23:27;9.43;;;6.80;;
20910;SDS011;10615;42.702;23.314;2023-05-07T02:24:27;9.00;;;6.82;;
20910;SDS011;10615;42.702;23.314;2023-05-07T02:25:28;10.30;;;6.85;;
20910;SDS011;10615;42.702;23.314;2023-05-07T02:26:30;9.80;;;6.65;;
20910;SDS011;10615;42.702;23.314;2023-05-07T02:27:30;9.55;;;6.57;;
20910;SDS011;10615;42.702;23.314;2023-05-07T02:28:31;11.75;;;6.90;;
20910;SDS011;10615;42.702;23.314;2023-05-07T02:29:31;10.82;;;7.05;;
20910;SDS011;10615;42.702;23.314;2023-05-07T02:30:32;7.90;;;6.38;;
20910;SDS011;10615;42.702;23.314;2023-05-07T02:31:33;9.93;;;6.95;;
20910;SDS011;10615;42.702;23.314;2023-05-07T02:32:34;9.88;;;7.10;;
20910;SDS011;10615;42.702;23.314;2023-05-07T02:33:34;8.77;;;7.03;;
20910;SDS011;10615;42.702;23.314;2023-05-07T02:34:36;8.93;;;7.03;;
20910;SDS011;10615;42.702;23.314;2023-05-07T02:35:37;9.38;;;6.90;;
20910;SDS011;10615;42.702;23.314;2023-05-07T02:36:37;10.65;;;7.10;;
20910;SDS011;10615;42.702;23.314;2023-05-07T02:37:38;9.88;;;7.20;;
20910;SDS011;10615;42.702;23.314;2023-05-07T02:38:39;9.35;;;7.30;;
20910;SDS011;10615;42.702;23.314;2023-05-07T02:39:39;10.93;;;7.75;;
20910;SDS011;10615;42.702;23.314;2023-05-07T02:40:40;10.50;;;7.47;;
20910;SDS011;10615;42.702;23.314;2023-05-07T02:41:40;10.70;;;7.63;;
20910;SDS011;10615;42.702;23.314;2023-05-07T02:42:41;12.82;;;7.55;;
20910;SDS011;10615;42.702;23.314;2023-05-07T02:43:42;9.35;;;7.45;;
20910;SDS011;10615;42.702;23.314;2023-05-07T02:44:42;11.00;;;7.55;;
20910;SDS011;10615;42.702;23.314;2023-05-07T02:45:43;10.63;;;7.90;;
20910;SDS011;10615;42.702;23.314;2023-05-07T02:46:44;11.93;;;7.85;;
20910;SDS011;10615;42.702;23.314;2023-05-07T02:47:44;10.77;;;7.93;;
20910;SDS011;10615;42.702;23.314;2023-05-07T02:48:46;9.45;;;8.07;;
20910;SDS011;10615;42.702;23.314;2023-05-07T02:49:47;8.27;;;7.40;;
20910;SDS011;10615;42.702;23.314;2023-05-07T02:50:47;10.70;;;7.10;;
20910;SDS011;10615;42.702;23.314;2023-05-07T02:51:48;9.02;;;8.00;;
20910;SDS011;10615;42.702;23.314;2023-05-07T02:52:49;20.38;;;7.80;;
20910;SDS011;10615;42.702;23.314;2023-05-07T02:53:49;10.82;;;7.75;;
20910;SDS011;10615;42.702;23.314;2023-05-07T02:54:50;10.52;;;7.60;;
20910;SDS011;10615;42.702;23.314;2023-05-07T02:55:52;8.93;;;7.68;;
20910;SDS011;10615;42.702;23.314;2023-05-07T02:56:56;15.38;;;7.63;;
20910;SDS011;10615;42.702;23.314;2023-05-07T02:57:57;10.77;;;7.45;;
20910;SDS011;10615;42.702;23.314;2023-05-07T02:58:58;12.98;;;7.95;;
20910;SDS011;10615;42.702;23.314;2023-05-07T02:59:58;11.40;;;8.18;;
20910;SDS011;10615;42.702;23.314;2023-05-07T03:00:59;10.98;;;7.53;;
20910;SDS011;10615;42.702;23.314;2023-05-07T03:02:00;12.43;;;7.93;;
20910;SDS011;10615;42.702;23.314;2023-05-07T03:03:00;13.63;;;7.60;;
20910;SDS011;10615;42.702;23.314;2023-05-07T03:04:01;12.32;;;8.57;;
20910;SDS011;10615;42.702;23.314;2023-05-07T03:05:02;8.93;;;7.75;;
20910;SDS011;10615;42.702;23.314;2023-05-07T03:06:03;10.88;;;7.95;;
20910;SDS011;10615;42.702;23.314;2023-05-07T03:07:04;12.52;;;8.23;;
20910;SDS011;10615;42.702;23.314;2023-05-07T03:08:05;10.07;;;8.07;;
20910;SDS011;10615;42.702;23.314;2023-05-07T03:09:05;11.65;;;8.90;;
20910;SDS011;10615;42.702;23.314;2023-05-07T03:10:06;11.05;;;8.02;;
20910;SDS011;10615;42.702;23.314;2023-05-07T03:11:07;11.23;;;7.50;;
20910;SDS011;10615;42.702;23.314;2023-05-07T03:12:08;11.13;;;8.48;;
20910;SDS011;10615;42.702;23.314;2023-05-07T03:13:09;11.77;;;8.43;;
20910;SDS011;10615;42.702;23.314;2023-05-07T03:14:09;16.13;;;8.98;;
20910;SDS011;10615;42.702;23.314;2023-05-07T03:15:10;12.45;;;8.90;;
20910;SDS011;10615;42.702;23.314;2023-05-07T03:16:14;12.85;;;8.77;;
20910;SDS011;10615;42.702;23.314;2023-05-07T03:17:15;13.20;;;8.93;;
20910;SDS011;10615;42.702;23.314;2023-05-07T03:18:16;13.60;;;8.52;;
20910;SDS011;10615;42.702;23.314;2023-05-07T03:19:17;12.35;;;8.70;;
20910;SDS011;10615;42.702;23.314;2023-05-07T03:20:17;13.93;;;9.10;;
20910;SDS011;10615;42.702;23.314;2023-05-07T03:21:18;13.25;;;9.10;;
20910;SDS011;10615;42.702;23.314;2023-05-07T03:22:19;9.63;;;8.35;;
20910;SDS011;10615;42.702;23.314;2023-05-07T03:23:20;11.38;;;8.75;;
20910;SDS011;10615;42.702;23.314;2023-05-07T03:24:21;11.88;;;9.10;;
20910;SDS011;10615;42.702;23.314;2023-05-07T03:25:21;12.65;;;9.00;;
20910;SDS011;10615;42.702;23.314;2023-05-07T03:26:22;15.30;;;9.52;;
20910;SDS011;10615;42.702;23.314;2023-05-07T03:27:23;16.58;;;9.25;;
20910;SDS011;10615;42.702;23.314;2023-05-07T03:28:23;11.43;;;9.10;;
20910;SDS011;10615;42.702;23.314;2023-05-07T03:29:24;11.60;;;9.23;;
20910;SDS011;10615;42.702;23.314;2023-05-07T03:30:25;15.13;;;9.55;;
20910;SDS011;10615;42.702;23.314;2023-05-07T03:31:25;13.80;;;9.30;;
20910;SDS011;10615;42.702;23.314;2023-05-07T03:32:26;11.02;;;8.77;;
20910;SDS011;10615;42.702;23.314;2023-05-07T03:33:27;14.75;;;9.30;;
20910;SDS011;10615;42.702;23.314;2023-05-07T03:34:27;16.08;;;9.57;;
20910;SDS011;10615;42.702;23.314;2023-05-07T03:35:28;13.52;;;9.35;;
20910;SDS011;10615;42.702;23.314;2023-05-07T03:36:29;12.63;;;8.68;;
20910;SDS011;10615;42.702;23.314;2023-05-07T03:37:30;14.23;;;9.40;;
20910;SDS011;10615;42.702;23.314;2023-05-07T03:38:31;14.73;;;9.23;;
20910;SDS011;10615;42.702;23.314;2023-05-07T03:39:31;15.57;;;9.73;;
20910;SDS011;10615;42.702;23.314;2023-05-07T03:40:32;11.25;;;8.88;;
20910;SDS011;10615;42.702;23.314;2023-05-07T03:41:33;13.80;;;9.52;;
20910;SDS011;10615;42.702;23.314;2023-05-07T03:42:33;15.38;;;9.40;;
20910;SDS011;10615;42.702;23.314;2023-05-07T03:43:34;13.68;;;9.00;;
20910;SDS011;10615;42.702;23.314;2023-05-07T03:44:35;11.27;;;8.85;;
20910;SDS011;10615;42.702;23.314;2023-05-07T03:45:38;13.27;;;8.60;;
20910;SDS011;10615;42.702;23.314;2023-05-07T03:46:39;16.55;;;9.20;;
20910;SDS011;10615;42.702;23.314;2023-05-07T03:47:39;10.88;;;8.25;;
20910;SDS011;10615;42.702;23.314;2023-05-07T03:48:40;11.18;;;8.68;;
20910;SDS011;10615;42.702;23.314;2023-05-07T03:49:40;12.88;;;8.60;;
20910;SDS011;10615;42.702;23.314;2023-05-07T03:50:41;11.65;;;8.75;;
20910;SDS011;10615;42.702;23.314;2023-05-07T03:51:42;12.05;;;8.88;;
20910;SDS011;10615;42.702;23.314;2023-05-07T03:52:43;11.90;;;8.40;;
20910;SDS011;10615;42.702;23.314;2023-05-07T03:53:44;12.10;;;8.43;;
20910;SDS011;10615;42.702;23.314;2023-05-07T03:54:45;15.30;;;8.77;;
20910;SDS011;10615;42.702;23.314;2023-05-07T03:55:45;14.95;;;8.27;;
20910;SDS011;10615;42.702;23.314;2023-05-07T03:56:46;12.27;;;8.63;;
20910;SDS011;10615;42.702;23.314;2023-05-07T03:57:47;10.38;;;8.85;;
20910;SDS011;10615;42.702;23.314;2023-05-07T03:59:06;12.73;;;9.43;;
20910;SDS011;10615;42.702;23.314;2023-05-07T04:00:07;13.80;;;10.98;;
20910;SDS011;10615;42.702;23.314;2023-05-07T04:01:08;15.65;;;14.10;;
20910;SDS011;10615;42.702;23.314;2023-05-07T04:02:11;19.35;;;15.73;;
20910;SDS011;10615;42.702;23.314;2023-05-07T04:03:11;17.42;;;15.73;;
20910;SDS011;10615;42.702;23.314;2023-05-07T04:04:12;17.92;;;16.23;;
20910;SDS011;10615;42.702;23.314;2023-05-07T04:05:13;19.65;;;17.45;;
20910;SDS011;10615;42.702;23.314;2023-05-07T04:06:17;19.13;;;17.17;;
20910;SDS011;10615;42.702;23.314;2023-05-07T04:07:18;19.75;;;17.65;;
20910;SDS011;10615;42.702;23.314;2023-05-07T04:08:19;19.65;;;17.65;;
20910;SDS011;10615;42.702;23.314;2023-05-07T04:09:20;21.50;;;19.25;;
20910;SDS011;10615;42.702;23.314;2023-05-07T04:10:20;21.08;;;18.80;;
20910;SDS011;10615;42.702;23.314;2023-05-07T04:11:21;25.08;;;19.25;;
20910;SDS011;10615;42.702;23.314;2023-05-07T04:12:21;20.83;;;17.77;;
20910;SDS011;10615;42.702;23.314;2023-05-07T04:13:22;20.85;;;18.88;;
20910;SDS011;10615;42.702;23.314;2023-05-07T04:14:23;21.10;;;19.00;;
20910;SDS011;10615;42.702;23.314;2023-05-07T04:15:24;21.00;;;18.60;;
20910;SDS011;10615;42.702;23.314;2023-05-07T04:16:24;19.63;;;17.63;;
20910;SDS011;10615;42.702;23.314;2023-05-07T04:17:25;19.05;;;16.55;;
20910;SDS011;10615;42.702;23.314;2023-05-07T04:18:25;22.25;;;17.08;;
20910;SDS011;10615;42.702;23.314;2023-05-07T04:19:26;18.33;;;16.42;;
20910;SDS011;10615;42.702;23.314;2023-05-07T04:20:27;17.60;;;15.80;;
20910;SDS011;10615;42.702;23.314;2023-05-07T04:21:27;16.92;;;15.13;;
20910;SDS011;10615;42.702;23.314;2023-05-07T04:22:28;16.50;;;14.82;;
20910;SDS011;10615;42.702;23.314;2023-05-07T04:23:29;17.02;;;15.23;;
20910;SDS011;10615;42.702;23.314;2023-05-07T04:24:33;16.42;;;14.82;;
20910;SDS011;10615;42.702;23.314;2023-05-07T04:25:33;16.20;;;14.57;;
20910;SDS011;10615;42.702;23.314;2023-05-07T04:26:34;14.80;;;13.30;;
20910;SDS011;10615;42.702;23.314;2023-05-07T04:27:35;15.48;;;13.90;;
20910;SDS011;10615;42.702;23.314;2023-05-07T04:28:36;13.32;;;11.98;;
20910;SDS011;10615;42.702;23.314;2023-05-07T04:29:36;13.50;;;10.18;;
20910;SDS011;10615;42.702;23.314;2023-05-07T04:30:38;12.15;;;8.55;;
20910;SDS011;10615;42.702;23.314;2023-05-07T04:31:39;11.50;;;8.63;;
20910;SDS011;10615;42.702;23.314;2023-05-07T04:32:40;9.55;;;7.78;;
20910;SDS011;10615;42.702;23.314;2023-05-07T04:33:41;9.38;;;7.53;;
20910;SDS011;10615;42.702;23.314;2023-05-07T04:34:41;9.65;;;7.70;;
20910;SDS011;10615;42.702;23.314;2023-05-07T04:35:42;11.10;;;7.70;;
20910;SDS011;10615;42.702;23.314;2023-05-07T04:36:43;9.07;;;7.38;;
20910;SDS011;10615;42.702;23.314;2023-05-07T04:37:43;13.25;;;7.82;;
20910;SDS011;10615;42.702;23.314;2023-05-07T04:38:44;11.13;;;7.57;;
20910;SDS011;10615;42.702;23.314;2023-05-07T04:39:45;10.38;;;7.30;;
20910;SDS011;10615;42.702;23.314;2023-05-07T04:40:46;8.93;;;6.97;;
20910;SDS011;10615;42.702;23.314;2023-05-07T04:41:47;9.07;;;7.15;;
20910;SDS011;10615;42.702;23.314;2023-05-07T04:42:48;9.38;;;6.80;;
20910;SDS011;10615;42.702;23.314;2023-05-07T04:43:48;10.50;;;6.57;;
20910;SDS011;10615;42.702;23.314;2023-05-07T04:44:52;11.35;;;6.68;;
20910;SDS011;10615;42.702;23.314;2023-05-07T04:45:53;9.48;;;7.22;;
20910;SDS011;10615;42.702;23.314;2023-05-07T04:46:54;9.50;;;6.68;;
20910;SDS011;10615;42.702;23.314;2023-05-07T04:47:55;9.30;;;6.60;;
20910;SDS011;10615;42.702;23.314;2023-05-07T04:48:55;12.07;;;6.75;;
20910;SDS011;10615;42.702;23.314;2023-05-07T04:49:57;9.07;;;6.53;;
20910;SDS011;10615;42.702;23.314;2023-05-07T04:50:58;7.60;;;6.40;;
20910;SDS011;10615;42.702;23.314;2023-05-07T04:51:59;8.15;;;6.38;;
20910;SDS011;10615;42.702;23.314;2023-05-07T04:52:59;11.18;;;7.05;;
20910;SDS011;10615;42.702;23.314;2023-05-07T04:54:00;12.25;;;7.15;;
20910;SDS011;10615;42.702;23.314;2023-05-07T04:55:01;7.28;;;6.55;;
20910;SDS011;10615;42.702;23.314;2023-05-07T04:56:02;9.85;;;7.18;;
20910;SDS011;10615;42.702;23.314;2023-05-07T04:57:03;11.95;;;6.63;;
20910;SDS011;10615;42.702;23.314;2023-05-07T04:58:04;10.73;;;6.75;;
20910;SDS011;10615;42.702;23.314;2023-05-07T04:59:05;9.43;;;6.25;;
20910;SDS011;10615;42.702;23.314;2023-05-07T05:00:06;9.32;;;6.90;;
20910;SDS011;10615;42.702;23.314;2023-05-07T05:01:14;8.43;;;6.40;;
20910;SDS011;10615;42.702;23.314;2023-05-07T05:02:15;7.68;;;6.40;;
20910;SDS011;10615;42.702;23.314;2023-05-07T05:03:18;9.88;;;6.68;;
20910;SDS011;10615;42.702;23.314;2023-05-07T05:04:19;8.88;;;6.88;;
20910;SDS011;10615;42.702;23.314;2023-05-07T05:05:20;9.20;;;7.10;;
20910;SDS011;10615;42.702;23.314;2023-05-07T05:06:20;8.98;;;6.93;;
20910;SDS011;10615;42.702;23.314;2023-05-07T05:07:21;7.22;;;6.53;;
20910;SDS011;10615;42.702;23.314;2023-05-07T05:08:21;9.70;;;6.75;;
20910;SDS011;10615;42.702;23.314;2023-05-07T05:09:22;7.82;;;6.50;;
20910;SDS011;10615;42.702;23.314;2023-05-07T05:10:23;8.05;;;6.68;;
20910;SDS011;10615;42.702;23.314;2023-05-07T05:11:24;7.43;;;6.72;;
20910;SDS011;10615;42.702;23.314;2023-05-07T05:12:25;10.02;;;6.45;;
20910;SDS011;10615;42.702;23.314;2023-05-07T05:13:25;9.30;;;7.20;;
20910;SDS011;10615;42.702;23.314;2023-05-07T05:14:26;10.15;;;7.22;;
20910;SDS011;10615;42.702;23.314;2023-05-07T05:15:27;8.02;;;6.47;;
20910;SDS011;10615;42.702;23.314;2023-05-07T05:16:27;10.60;;;6.50;;
20910;SDS011;10615;42.702;23.314;2023-05-07T05:17:28;6.97;;;6.28;;
20910;SDS011;10615;42.702;23.314;2023-05-07T05:18:29;11.02;;;7.10;;
20910;SDS011;10615;42.702;23.314;2023-05-07T05:19:30;8.23;;;6.82;;
20910;SDS011;10615;42.702;23.314;2023-05-07T05:20:30;7.35;;;6.55;;
20910;SDS011;10615;42.702;23.314;2023-05-07T05:21:31;8.10;;;6.35;;
20910;SDS011;10615;42.702;23.314;2023-05-07T05:22:32;8.48;;;6.65;;
20910;SDS011;10615;42.702;23.314;2023-05-07T05:23:33;8.05;;;7.15;;
20910;SDS011;10615;42.702;23.314;2023-05-07T05:24:33;8.98;;;7.18;;
20910;SDS011;10615;42.702;23.314;2023-05-07T05:25:34;7.75;;;6.95;;
20910;SDS011;10615;42.702;23.314;2023-05-07T05:26:35;7.47;;;6.05;;
20910;SDS011;10615;42.702;23.314;2023-05-07T05:27:36;14.85;;;7.07;;
20910;SDS011;10615;42.702;23.314;2023-05-07T05:28:36;7.40;;;6.43;;
20910;SDS011;10615;42.702;23.314;2023-05-07T05:29:37;7.88;;;7.07;;
20910;SDS011;10615;42.702;23.314;2023-05-07T05:30:38;7.70;;;6.65;;
20910;SDS011;10615;42.702;23.314;2023-05-07T05:31:39;7.63;;;6.80;;
20910;SDS011;10615;42.702;23.314;2023-05-07T05:32:41;10.50;;;6.78;;
20910;SDS011;10615;42.702;23.314;2023-05-07T05:33:42;8.68;;;6.82;;
20910;SDS011;10615;42.702;23.314;2023-05-07T05:34:43;8.55;;;7.00;;
20910;SDS011;10615;42.702;23.314;2023-05-07T05:35:44;9.45;;;6.82;;
20910;SDS011;10615;42.702;23.314;2023-05-07T05:36:45;7.90;;;6.90;;
20910;SDS011;10615;42.702;23.314;2023-05-07T05:37:46;7.90;;;6.82;;
20910;SDS011;10615;42.702;23.314;2023-05-07T05:38:47;8.68;;;7.43;;
20910;SDS011;10615;42.702;23.314;2023-05-07T05:39:48;9.40;;;6.93;;
20910;SDS011;10615;42.702;23.314;2023-05-07T05:40:49;7.82;;;7.03;;
20910;SDS011;10615;42.702;23.314;2023-05-07T05:41:49;7.90;;;7.20;;
20910;SDS011;10615;42.702;23.314;2023-05-07T05:42:50;8.70;;;7.53;;
20910;SDS011;10615;42.702;23.314;2023-05-07T05:43:51;7.70;;;7.00;;
20910;SDS011;10615;42.702;23.314;2023-05-07T05:44:51;7.93;;;7.13;;
20910;SDS011;10615;42.702;23.314;2023-05-07T05:45:52;8.25;;;7.50;;
20910;SDS011;10615;42.702;23.314;2023-05-07T05:46:53;9.00;;;7.75;;
20910;SDS011;10615;42.702;23.314;2023-05-07T05:47:55;10.02;;;7.18;;
20910;SDS011;10615;42.702;23.314;2023-05-07T05:48:56;8.23;;;7.28;;
20910;SDS011;10615;42.702;23.314;2023-05-07T05:49:57;8.07;;;7.20;;
20910;SDS011;10615;42.702;23.314;2023-05-07T05:50:58;8.18;;;7.38;;
20910;SDS011;10615;42.702;23.314;2023-05-07T05:51:58;11.95;;;7.28;;
20910;SDS011;10615;42.702;23.314;2023-05-07T05:52:59;12.55;;;7.78;;
20910;SDS011;10615;42.702;23.314;2023-05-07T05:54:00;9.25;;;7.65;;
20910;SDS011;10615;42.702;23.314;2023-05-07T05:55:00;8.30;;;7.50;;
20910;SDS011;10615;42.702;23.314;2023-05-07T05:56:01;8.30;;;7.50;;
20910;SDS011;10615;42.702;23.314;2023-05-07T05:57:02;8.82;;;7.72;;
20910;SDS011;10615;42.702;23.314;2023-05-07T05:58:04;10.07;;;7.22;;